createdAt,value
2018-04-01T00:02:10.826Z,86.14
2018-04-01T00:04:39.188Z,86.19
2018-04-01T00:07:07.566Z,86.56
2018-04-01T00:09:35.929Z,86.73
2018-04-01T00:12:04.307Z,86.85
2018-04-01T00:14:32.654Z,87.28
2018-04-01T00:17:01.032Z,86.92
2018-04-01T00:19:30.154Z,87.55
2018-04-01T00:21:58.516Z,87.38
2018-04-01T00:24:26.874Z,87.56
2018-04-01T00:26:56.029Z,87.41
2018-04-01T00:29:24.363Z,87.71
2018-04-01T00:31:52.724Z,87.83
2018-04-01T00:34:21.154Z,87.74
2018-04-01T00:36:49.524Z,88.27
2018-04-01T00:39:17.887Z,88.88
2018-04-01T00:41:46.244Z,88.98
2018-04-01T00:44:15.379Z,89.02
2018-04-01T00:46:43.706Z,88.94
2018-04-01T00:49:12.840Z,89.11
2018-04-01T00:51:41.196Z,89.10
2018-04-01T00:54:10.331Z,89.58
2018-04-01T00:56:38.686Z,90.01
2018-04-01T00:59:07.059Z,89.74
2018-04-01T01:01:35.415Z,89.81
2018-04-01T01:04:04.569Z,89.69
2018-04-01T01:06:32.918Z,88.90
2018-04-01T01:09:01.311Z,89.13
2018-04-01T01:11:29.733Z,88.75
2018-04-01T01:13:58.084Z,88.29
2018-04-01T01:16:26.774Z,87.66
2018-04-01T01:18:55.126Z,88.05
2018-04-01T01:21:23.503Z,88.48
2018-04-01T01:23:51.907Z,87.84
2018-04-01T01:26:20.272Z,87.88
2018-04-01T01:28:48.623Z,88.04
2018-04-01T01:31:16.992Z,87.27
2018-04-01T01:33:45.360Z,87.37
2018-04-01T01:36:13.749Z,87.27
2018-04-01T01:38:42.082Z,87.81
2018-04-01T01:41:10.470Z,88.11
2018-04-01T01:43:38.807Z,88.28
2018-04-01T01:46:07.168Z,88.70
2018-04-01T01:48:35.555Z,88.52
2018-04-01T01:51:03.912Z,88.72
2018-04-01T01:53:32.280Z,88.75
2018-04-01T01:56:00.655Z,88.25
2018-04-01T01:58:29.803Z,87.93
2018-04-01T02:00:58.155Z,87.84
2018-04-01T02:03:26.517Z,87.74
2018-04-01T02:05:54.855Z,87.31
2018-04-01T02:08:23.227Z,87.36
2018-04-01T02:10:51.628Z,87.46
2018-04-01T02:13:20.740Z,87.47
2018-04-01T02:15:49.087Z,87.46
2018-04-01T02:18:18.245Z,87.19
2018-04-01T02:20:46.600Z,87.24
2018-04-01T02:23:14.983Z,87.37
2018-04-01T02:25:43.341Z,87.21
2018-04-01T02:28:12.477Z,87.22
2018-04-01T02:30:40.843Z,87.21
2018-04-01T02:33:09.247Z,87.10
2018-04-01T02:35:37.605Z,87.08
2018-04-01T02:38:06.001Z,87.28
2018-04-01T02:40:35.114Z,87.35
2018-04-01T02:43:03.483Z,87.38
2018-04-01T02:45:31.854Z,87.25
2018-04-01T02:48:00.200Z,87.75
2018-04-01T02:50:28.603Z,87.79
2018-04-01T02:52:56.961Z,87.83
2018-04-01T02:55:25.319Z,87.77
2018-04-01T02:57:53.687Z,87.84
2018-04-01T03:00:22.839Z,87.87
2018-04-01T03:02:51.169Z,87.93
2018-04-01T03:05:19.581Z,88.62
2018-04-01T03:07:47.936Z,88.87
2018-04-01T03:10:16.307Z,88.66
2018-04-01T03:12:44.662Z,88.61
2018-04-01T03:15:13.811Z,88.57
2018-04-01T03:17:42.184Z,88.56
2018-04-01T03:20:10.559Z,88.86
2018-04-01T03:22:38.932Z,88.94
2018-04-01T03:25:07.294Z,88.57
2018-04-01T03:27:35.790Z,88.66
2018-04-01T03:30:04.162Z,88.72
2018-04-01T03:32:32.522Z,88.61
2018-04-01T03:35:00.875Z,88.52
2018-04-01T03:37:30.004Z,88.49
2018-04-01T03:39:58.358Z,88.28
2018-04-01T03:42:27.505Z,88.26
2018-04-01T03:44:55.855Z,88.24
2018-04-01T03:47:24.231Z,88.14
2018-04-01T03:49:52.610Z,88.11
2018-04-01T03:52:20.983Z,88.21
2018-04-01T03:54:49.406Z,88.25
2018-04-01T03:57:17.828Z,88.36
2018-04-01T03:59:46.935Z,88.53
2018-04-01T04:02:15.294Z,88.66
2018-04-01T04:04:44.444Z,88.86
2018-04-01T04:07:12.796Z,88.97
2018-04-01T04:09:41.160Z,89.04
2018-04-01T04:12:09.527Z,88.94
2018-04-01T04:14:38.643Z,88.89
2018-04-01T04:17:07.029Z,88.76
2018-04-01T04:19:35.390Z,88.83
2018-04-01T04:22:03.751Z,88.78
2018-04-01T04:24:32.889Z,88.67
2018-04-01T04:27:01.219Z,88.65
2018-04-01T04:29:30.348Z,88.70
2018-04-01T04:31:58.717Z,88.70
2018-04-01T04:34:27.186Z,88.85
2018-04-01T04:36:55.530Z,88.55
2018-04-01T04:39:23.895Z,88.63
2018-04-01T04:41:52.265Z,88.91
2018-04-01T04:44:20.603Z,88.75
2018-04-01T04:46:48.981Z,88.68
2018-04-01T04:49:17.338Z,88.72
2018-04-01T04:51:46.478Z,88.86
2018-04-01T04:54:14.842Z,88.74
2018-04-01T04:56:43.195Z,88.72
2018-04-01T04:59:12.312Z,88.69
2018-04-01T05:01:40.662Z,88.62
2018-04-01T05:04:09.810Z,88.51
2018-04-01T05:06:38.279Z,88.51
2018-04-01T05:09:06.653Z,88.53
2018-04-01T05:11:35.006Z,88.36
2018-04-01T05:14:03.379Z,88.68
2018-04-01T05:16:31.743Z,88.59
2018-04-01T05:19:00.090Z,88.80
2018-04-01T05:21:28.452Z,88.70
2018-04-01T05:23:56.878Z,88.65
2018-04-01T05:26:26.134Z,88.80
2018-04-01T05:28:54.499Z,88.82
2018-04-01T05:31:22.862Z,88.68
2018-04-01T05:33:51.982Z,88.88
2018-04-01T05:36:20.327Z,89.00
2018-04-01T05:38:48.669Z,89.06
2018-04-01T05:41:17.047Z,89.24
2018-04-01T05:43:45.422Z,89.13
2018-04-01T05:46:13.766Z,88.96
2018-04-01T05:48:42.130Z,88.61
2018-04-01T05:51:10.491Z,88.37
2018-04-01T05:53:38.858Z,87.50
2018-04-01T05:56:08.094Z,87.03
2018-04-01T05:58:36.442Z,86.12
2018-04-01T06:01:05.556Z,86.29
2018-04-01T06:03:33.919Z,85.46
2018-04-01T06:06:03.047Z,85.63
2018-04-01T06:08:31.398Z,85.11
2018-04-01T06:10:59.769Z,85.30
2018-04-01T06:13:28.146Z,84.88
2018-04-01T06:15:56.518Z,85.69
2018-04-01T06:18:24.891Z,85.63
2018-04-01T06:20:54.043Z,85.52
2018-04-01T06:23:22.362Z,85.30
2018-04-01T06:25:51.509Z,85.48
2018-04-01T06:28:19.853Z,85.67
2018-04-01T06:30:48.225Z,85.52
2018-04-01T06:33:16.570Z,85.14
2018-04-01T06:35:44.930Z,84.92
2018-04-01T06:38:14.070Z,83.83
2018-04-01T06:40:43.196Z,85.39
2018-04-01T06:43:11.596Z,85.41
2018-04-01T06:45:40.002Z,85.32
2018-04-01T06:48:09.114Z,85.56
2018-04-01T06:50:38.274Z,85.93
2018-04-01T06:53:06.634Z,86.17
2018-04-01T06:55:35.031Z,85.17
2018-04-01T06:58:04.142Z,85.24
2018-04-01T07:00:33.269Z,85.16
2018-04-01T07:03:01.821Z,85.59
2018-04-01T07:05:30.185Z,85.97
2018-04-01T07:07:58.550Z,86.68
2018-04-01T07:10:26.901Z,86.32
2018-04-01T07:12:55.279Z,86.82
2018-04-01T07:15:23.631Z,87.16
2018-04-01T07:17:51.997Z,87.68
2018-04-01T07:20:21.130Z,87.87
2018-04-01T07:22:49.521Z,87.84
2018-04-01T07:25:18.699Z,88.05
2018-04-01T07:27:47.071Z,88.49
2018-04-01T07:30:15.451Z,88.83
2018-04-01T07:32:43.807Z,89.16
2018-04-01T07:35:12.166Z,88.87
2018-04-01T07:37:40.538Z,88.19
2018-04-01T07:40:08.917Z,87.73
2018-04-01T07:42:37.262Z,88.32
2018-04-01T07:45:05.649Z,88.63
2018-04-01T07:47:34.014Z,89.21
2018-04-01T07:50:02.358Z,89.94
2018-04-01T07:52:30.929Z,90.05
2018-04-01T07:55:00.082Z,90.14
2018-04-01T07:57:28.622Z,90.18
2018-04-01T07:59:56.983Z,90.67
2018-04-01T08:02:25.358Z,90.09
2018-04-01T08:04:54.519Z,90.14
2018-04-01T08:07:22.879Z,90.46
2018-04-01T08:09:51.228Z,90.66
2018-04-01T08:12:19.596Z,90.77
2018-04-01T08:14:48.711Z,90.92
2018-04-01T08:17:17.139Z,90.78
2018-04-01T08:19:45.558Z,90.01
2018-04-01T08:22:13.920Z,89.68
2018-04-01T08:24:43.028Z,89.23
2018-04-01T08:27:11.430Z,89.37
2018-04-01T08:29:39.783Z,89.13
2018-04-01T08:32:08.942Z,89.03
2018-04-01T08:34:37.288Z,88.96
2018-04-01T08:37:05.678Z,89.40
2018-04-01T08:39:34.042Z,89.23
2018-04-01T08:42:02.438Z,90.07
2018-04-01T08:44:30.828Z,90.17
2018-04-01T08:46:59.265Z,90.10
2018-04-01T08:49:27.615Z,90.70
2018-04-01T08:51:56.754Z,90.56
2018-04-01T08:54:25.124Z,91.11
2018-04-01T08:56:53.696Z,91.29
2018-04-01T08:59:22.125Z,91.72
2018-04-01T09:01:50.481Z,91.71
2018-04-01T09:04:18.888Z,91.50
2018-04-01T09:06:47.240Z,91.90
2018-04-01T09:09:15.638Z,91.63
2018-04-01T09:11:44.005Z,92.04
2018-04-01T09:14:12.403Z,92.49
2018-04-01T09:16:40.747Z,92.27
2018-04-01T09:19:09.171Z,92.49
2018-04-01T09:21:37.538Z,92.48
2018-04-01T09:24:05.920Z,92.56
2018-04-01T09:26:34.270Z,92.27
2018-04-01T09:29:02.654Z,92.48
2018-04-01T09:31:31.030Z,92.13
2018-04-01T09:33:59.383Z,92.81
2018-04-01T09:36:28.522Z,92.67
2018-04-01T09:38:56.936Z,92.44
2018-04-01T09:41:25.307Z,92.37
2018-04-01T09:43:54.464Z,92.43
2018-04-01T09:46:22.843Z,92.31
2018-04-01T09:48:51.229Z,91.66
2018-04-01T09:51:19.594Z,91.74
2018-04-01T09:53:47.962Z,91.85
2018-04-01T09:56:16.372Z,91.82
2018-04-01T09:58:44.699Z,91.71
2018-04-01T10:01:14.824Z,92.05
2018-04-01T10:03:44.032Z,91.08
2018-04-01T10:06:13.258Z,91.42
2018-04-01T10:08:42.517Z,92.17
2018-04-01T10:11:11.746Z,90.76
2018-04-01T10:13:40.948Z,90.78
2018-04-01T10:16:10.258Z,91.56
2018-04-01T10:18:39.472Z,90.93
2018-04-01T10:21:09.476Z,90.38
2018-04-01T10:23:39.443Z,90.53
2018-04-01T10:26:08.690Z,90.52
2018-04-01T10:28:38.671Z,90.02
2018-04-01T10:31:07.927Z,89.15
2018-04-01T10:33:37.172Z,88.87
2018-04-01T10:36:06.497Z,89.46
2018-04-01T10:38:36.519Z,88.82
2018-04-01T10:41:06.527Z,89.08
2018-04-01T10:43:36.547Z,89.76
2018-04-01T10:46:06.581Z,89.30
2018-04-01T10:48:35.819Z,89.51
2018-04-01T10:51:05.066Z,89.39
2018-04-01T10:53:35.061Z,88.04
2018-04-01T10:56:03.435Z,88.40
2018-04-01T10:58:32.002Z,88.21
2018-04-01T11:01:00.441Z,87.61
2018-04-01T11:03:28.793Z,88.10
2018-04-01T11:05:57.174Z,88.65
2018-04-01T11:08:26.373Z,88.93
2018-04-01T11:10:54.896Z,86.96
2018-04-01T11:13:23.240Z,87.08
2018-04-01T11:15:51.672Z,87.77
2018-04-01T11:18:20.232Z,87.34
2018-04-01T11:20:49.332Z,85.18
2018-04-01T11:23:18.074Z,84.28
2018-04-01T11:25:47.228Z,85.09
2018-04-01T11:28:15.599Z,84.88
2018-04-01T11:30:44.013Z,84.52
2018-04-01T11:33:12.371Z,84.22
2018-04-01T11:35:40.755Z,85.08
2018-04-01T11:38:09.129Z,81.26
2018-04-01T11:40:38.283Z,82.65
2018-04-01T11:43:06.673Z,82.13
2018-04-01T11:45:35.087Z,81.32
2018-04-01T11:48:04.241Z,81.55
2018-04-01T11:50:32.618Z,81.95
2018-04-01T11:53:01.586Z,81.13
2018-04-01T11:55:29.984Z,80.98
2018-04-01T11:57:58.352Z,83.18
2018-04-01T12:00:27.465Z,81.38
2018-04-01T12:02:55.915Z,79.72
2018-04-01T12:05:24.218Z,78.97
2018-04-01T12:07:52.582Z,77.62
2018-04-01T12:10:20.957Z,76.17
2018-04-01T12:12:50.063Z,77.74
2018-04-01T12:15:18.530Z,77.24
2018-04-01T12:17:46.928Z,76.45
2018-04-01T12:20:15.322Z,75.69
2018-04-01T12:22:43.684Z,76.20
2018-04-01T12:25:12.133Z,75.28
2018-04-01T12:27:40.455Z,77.15
2018-04-01T12:30:08.828Z,76.87
2018-04-01T12:32:37.210Z,75.62
2018-04-01T12:35:05.562Z,74.12
2018-04-01T12:37:33.939Z,74.52
2018-04-01T12:40:02.330Z,74.99
2018-04-01T12:42:31.423Z,76.96
2018-04-01T12:44:59.779Z,77.02
2018-04-01T12:47:28.108Z,77.43
2018-04-01T12:49:56.519Z,77.45
2018-04-01T12:52:24.863Z,76.55
2018-04-01T12:54:53.343Z,76.42
2018-04-01T12:57:21.654Z,76.75
2018-04-01T12:59:50.780Z,76.60
2018-04-01T13:02:19.154Z,77.07
2018-04-01T13:04:47.535Z,77.83
2018-04-01T13:07:15.904Z,78.73
2018-04-01T13:09:44.296Z,79.91
2018-04-01T13:12:12.642Z,79.77
2018-04-01T13:14:41.755Z,77.91
2018-04-01T13:17:10.125Z,79.38
2018-04-01T13:19:39.242Z,79.61
2018-04-01T13:22:07.619Z,77.43
2018-04-01T13:24:35.984Z,77.41
2018-04-01T13:27:04.415Z,77.47
2018-04-01T13:29:33.574Z,76.13
2018-04-01T13:32:01.927Z,77.73
2018-04-01T13:34:30.350Z,78.15
2018-04-01T13:36:58.703Z,78.34
2018-04-01T13:39:27.059Z,76.13
2018-04-01T13:41:56.202Z,76.91
2018-04-01T13:44:24.649Z,75.84
2018-04-01T13:46:53.738Z,78.04
2018-04-01T13:49:22.114Z,78.49
2018-04-01T13:51:51.225Z,77.33
2018-04-01T13:54:19.577Z,78.05
2018-04-01T13:56:48.709Z,78.54
2018-04-01T13:59:17.035Z,79.62
2018-04-01T14:01:46.192Z,77.95
2018-04-01T14:04:14.596Z,78.82
2018-04-01T14:06:42.966Z,78.76
2018-04-01T14:09:11.342Z,78.25
2018-04-01T14:11:39.790Z,79.08
2018-04-01T14:14:08.134Z,78.94
2018-04-01T14:16:36.560Z,79.06
2018-04-01T14:19:04.980Z,78.31
2018-04-01T14:21:34.202Z,78.98
2018-04-01T14:24:02.576Z,77.50
2018-04-01T14:26:31.040Z,77.46
2018-04-01T14:28:59.415Z,78.70
2018-04-01T14:31:27.781Z,78.67
2018-04-01T14:33:56.147Z,79.33
2018-04-01T14:36:24.523Z,79.15
2018-04-01T14:38:52.910Z,79.48
2018-04-01T14:41:21.297Z,79.83
2018-04-01T14:43:50.470Z,79.91
2018-04-01T14:46:18.871Z,80.12
2018-04-01T14:48:48.031Z,79.84
2018-04-01T14:51:16.455Z,80.07
2018-04-01T14:53:44.813Z,79.86
2018-04-01T14:56:13.179Z,80.31
2018-04-01T14:58:41.577Z,80.40
2018-04-01T15:01:10.113Z,79.98
2018-04-01T15:03:38.462Z,80.59
2018-04-01T15:06:07.636Z,80.36
2018-04-01T15:08:36.040Z,79.82
2018-04-01T15:11:05.230Z,78.13
2018-04-01T15:13:34.433Z,78.37
2018-04-01T15:16:02.862Z,77.87
2018-04-01T15:18:31.260Z,78.24
2018-04-01T15:21:00.430Z,78.53
2018-04-01T15:23:28.776Z,77.50
2018-04-01T15:25:57.177Z,77.89
2018-04-01T15:28:25.538Z,77.79
2018-04-01T15:30:53.927Z,78.16
2018-04-01T15:33:22.379Z,78.17
2018-04-01T15:35:51.569Z,78.37
2018-04-01T15:38:20.886Z,79.24
2018-04-01T15:40:49.279Z,78.46
2018-04-01T15:43:18.361Z,77.23
2018-04-01T15:45:47.533Z,78.03
2018-04-01T15:48:16.744Z,78.27
2018-04-01T15:50:45.915Z,77.27
2018-04-01T15:53:14.300Z,77.46
2018-04-01T15:55:42.682Z,77.17
2018-04-01T15:58:11.819Z,76.50
2018-04-01T16:00:40.211Z,76.84
2018-04-01T16:03:08.554Z,77.32
2018-04-01T16:05:36.954Z,77.74
2018-04-01T16:08:05.387Z,77.90
2018-04-01T16:10:33.731Z,78.59
2018-04-01T16:13:03.160Z,78.76
2018-04-01T16:15:31.583Z,77.85
2018-04-01T16:17:59.984Z,78.43
2018-04-01T16:20:28.330Z,78.78
2018-04-01T16:22:56.722Z,78.51
2018-04-01T16:25:25.098Z,79.00
2018-04-01T16:27:53.476Z,78.58
2018-04-01T16:30:21.835Z,77.78
2018-04-01T16:32:51.054Z,78.03
2018-04-01T16:35:19.412Z,78.48
2018-04-01T16:37:47.799Z,78.73
2018-04-01T16:40:16.171Z,78.20
2018-04-01T16:42:44.570Z,78.20
2018-04-01T16:45:12.939Z,78.86
2018-04-01T16:47:41.394Z,78.46
2018-04-01T16:50:10.726Z,78.72
2018-04-01T16:52:39.061Z,79.13
2018-04-01T16:55:07.468Z,79.80
2018-04-01T16:57:35.824Z,79.82
2018-04-01T17:00:04.973Z,79.61
2018-04-01T17:02:34.091Z,80.26
2018-04-01T17:05:04.264Z,80.47
2018-04-01T17:07:33.603Z,79.97
2018-04-01T17:10:01.971Z,79.46
2018-04-01T17:12:30.415Z,78.74
2018-04-01T17:14:58.943Z,79.03
2018-04-01T17:17:27.307Z,79.49
2018-04-01T17:19:55.672Z,79.41
2018-04-01T17:22:24.025Z,79.86
2018-04-01T17:24:52.431Z,78.70
2018-04-01T17:27:21.579Z,78.84
2018-04-01T17:29:50.732Z,78.28
2018-04-01T17:32:19.116Z,78.53
2018-04-01T17:34:48.259Z,78.54
2018-04-01T17:37:17.373Z,78.16
2018-04-01T17:39:45.768Z,77.14
2018-04-01T17:42:14.157Z,76.99
2018-04-01T17:44:42.536Z,76.81
2018-04-01T17:47:11.611Z,76.07
2018-04-01T17:49:40.007Z,75.94
2018-04-01T17:52:08.367Z,75.07
2018-04-01T17:54:36.768Z,75.10
2018-04-01T17:57:05.156Z,72.28
2018-04-01T17:59:33.756Z,72.91
2018-04-01T18:02:02.731Z,73.12
2018-04-01T18:04:31.122Z,73.57
2018-04-01T18:06:59.533Z,73.69
2018-04-01T18:09:28.660Z,74.63
2018-04-01T18:11:57.063Z,74.52
2018-04-01T18:14:25.441Z,74.65
2018-04-01T18:16:54.153Z,76.12
2018-04-01T18:19:22.503Z,75.87
2018-04-01T18:21:50.896Z,75.29
2018-04-01T18:24:20.066Z,75.12
2018-04-01T18:26:49.238Z,75.57
2018-04-01T18:29:17.613Z,76.03
2018-04-01T18:31:46.018Z,76.81
2018-04-01T18:34:14.376Z,76.67
2018-04-01T18:36:42.755Z,76.65
2018-04-01T18:39:11.130Z,77.14
2018-04-01T18:41:39.528Z,77.38
2018-04-01T18:44:07.899Z,77.30
2018-04-01T18:46:36.284Z,76.80
2018-04-01T18:49:04.660Z,76.93
2018-04-01T18:51:33.110Z,77.17
2018-04-01T18:54:01.650Z,77.85
2018-04-01T18:56:30.103Z,77.91
2018-04-01T18:58:58.531Z,78.00
2018-04-01T19:01:26.993Z,78.11
2018-04-01T19:03:56.083Z,78.17
2018-04-01T19:06:25.547Z,78.17
2018-04-01T19:08:53.926Z,78.22
2018-04-01T19:11:22.305Z,78.29
2018-04-01T19:13:50.700Z,78.50
2018-04-01T19:16:19.937Z,78.95
2018-04-01T19:18:49.222Z,77.27
2018-04-01T19:21:19.244Z,77.18
2018-04-01T19:23:48.542Z,77.20
2018-04-01T19:26:17.740Z,77.31
2018-04-01T19:28:47.030Z,77.65
2018-04-01T19:31:16.202Z,77.60
2018-04-01T19:33:45.496Z,77.98
2018-04-01T19:36:14.755Z,78.68
2018-04-01T19:38:44.779Z,78.34
2018-04-01T19:41:14.750Z,78.93
2018-04-01T19:43:44.022Z,79.16
2018-04-01T19:46:13.267Z,79.49
2018-04-01T19:48:43.364Z,79.15
2018-04-01T19:51:12.608Z,79.13
2018-04-01T19:53:41.784Z,79.50
2018-04-01T19:56:11.808Z,79.81
2018-04-01T19:58:41.835Z,79.86
2018-04-01T20:01:11.294Z,79.59
2018-04-01T20:03:40.498Z,77.71
2018-04-01T20:06:09.766Z,78.67
2018-04-01T20:08:39.007Z,79.33
2018-04-01T20:11:08.240Z,79.06
2018-04-01T20:13:37.456Z,79.76
2018-04-01T20:16:07.546Z,79.84
2018-04-01T20:18:36.802Z,79.11
2018-04-01T20:21:06.052Z,78.40
2018-04-01T20:23:35.302Z,77.19
2018-04-01T20:26:04.598Z,77.52
2018-04-01T20:28:33.841Z,77.46
2018-04-01T20:31:03.060Z,77.54
2018-04-01T20:33:32.295Z,78.19
2018-04-01T20:36:01.538Z,76.25
2018-04-01T20:38:30.778Z,75.58
2018-04-01T20:41:00.040Z,75.75
2018-04-01T20:43:29.258Z,76.18
2018-04-01T20:45:58.538Z,76.91
2018-04-01T20:48:27.774Z,77.68
2018-04-01T20:50:56.990Z,78.37
2018-04-01T20:53:26.242Z,79.12
2018-04-01T20:55:55.474Z,79.47
2018-04-01T20:58:24.695Z,79.58
2018-04-01T21:00:54.690Z,79.52
2018-04-01T21:03:23.914Z,79.47
2018-04-01T21:05:53.919Z,79.45
2018-04-01T21:08:24.127Z,79.30
2018-04-01T21:10:53.436Z,79.41
2018-04-01T21:13:22.700Z,79.29
2018-04-01T21:15:51.898Z,79.04
2018-04-01T21:18:21.456Z,78.92
2018-04-01T21:20:51.454Z,78.88
2018-04-01T21:23:20.693Z,78.75
2018-04-01T21:25:49.963Z,78.80
2018-04-01T21:28:19.222Z,78.92
2018-04-01T21:30:48.461Z,79.13
2018-04-01T21:33:18.482Z,79.63
2018-04-01T21:35:47.704Z,80.15
2018-04-01T21:38:16.971Z,80.31
2018-04-01T21:40:46.212Z,80.69
2018-04-01T21:43:15.460Z,81.13
2018-04-01T21:45:44.662Z,81.18
2018-04-01T21:48:14.712Z,81.25
2018-04-01T21:50:43.913Z,81.45
2018-04-01T21:53:13.180Z,81.84
2018-04-01T21:55:42.424Z,81.97
2018-04-01T21:58:11.649Z,82.40
2018-04-01T22:00:40.987Z,82.44
2018-04-01T22:03:10.257Z,82.36
2018-04-01T22:05:39.491Z,82.81
2018-04-01T22:08:08.696Z,82.85
2018-04-01T22:10:37.902Z,83.03
2018-04-01T22:13:07.114Z,83.52
2018-04-01T22:15:36.351Z,84.15
2018-04-01T22:18:05.562Z,84.64
2018-04-01T22:20:35.560Z,85.30
2018-04-01T22:23:12.328Z,85.32
2018-04-01T22:25:41.575Z,85.89
2018-04-01T22:28:10.790Z,85.90
2018-04-01T22:30:40.085Z,86.08
2018-04-01T22:33:10.045Z,86.02
2018-04-01T22:35:40.051Z,85.89
2018-04-01T22:38:09.512Z,86.23
2018-04-01T22:40:38.731Z,86.51
2018-04-01T22:43:07.941Z,86.68
2018-04-01T22:45:37.170Z,86.81
2018-04-01T22:48:07.151Z,86.68
2018-04-01T22:50:36.367Z,86.88
2018-04-01T22:53:05.629Z,87.05
2018-04-01T22:55:34.842Z,86.85
2018-04-01T22:58:04.096Z,87.18
2018-04-01T23:00:33.369Z,87.06
2018-04-01T23:03:02.551Z,87.09
2018-04-01T23:05:31.762Z,87.02
2018-04-01T23:08:01.007Z,86.99
2018-04-01T23:10:30.248Z,87.10
2018-04-01T23:12:59.500Z,87.02
2018-04-01T23:15:28.697Z,87.09
2018-04-01T23:17:58.039Z,86.91
2018-04-01T23:20:27.297Z,86.83
2018-04-01T23:22:56.501Z,86.83
2018-04-01T23:25:26.003Z,86.88
2018-04-01T23:27:55.958Z,86.78
2018-04-01T23:30:25.304Z,86.89
2018-04-01T23:32:55.338Z,87.00
2018-04-01T23:35:24.568Z,86.81
2018-04-01T23:37:53.829Z,86.55
2018-04-01T23:40:23.090Z,86.52
2018-04-01T23:42:53.145Z,86.48
2018-04-01T23:45:22.339Z,86.50
2018-04-01T23:47:51.561Z,86.56
2018-04-01T23:50:20.756Z,86.49
2018-04-01T23:52:49.979Z,86.38
2018-04-01T23:55:19.184Z,86.31
2018-04-01T23:57:48.428Z,86.40
